createdAt,value
2019-04-27T00:04:20.002Z,99230.72
2019-04-27T00:10:36.524Z,99229.77
2019-04-27T00:16:51.603Z,99227.53
2019-04-27T00:23:00.759Z,99227.12
2019-04-27T00:29:05.726Z,99209.06
2019-04-27T00:35:13.649Z,99217.70
2019-04-27T00:41:20.544Z,99208.47
2019-04-27T00:47:25.173Z,99187.63
2019-04-27T00:53:29.739Z,99186.68
2019-04-27T00:59:48.089Z,99175.36
2019-04-27T01:05:53.158Z,99177.39
2019-04-27T01:11:57.770Z,99160.25
2019-04-27T01:18:11.957Z,99168.91
2019-04-27T01:24:08.999Z,99158.91
2019-04-27T01:30:18.933Z,99167.25
2019-04-27T01:36:23.539Z,99164.88
2019-04-27T01:42:29.469Z,99160.92
2019-04-27T01:48:34.247Z,99163.61
2019-04-27T01:54:40.822Z,99152.32
2019-04-27T02:00:47.240Z,99161.86
2019-04-27T02:06:53.441Z,99161.52
2019-04-27T02:12:58.697Z,99164.19
2019-04-27T02:19:03.389Z,99160.69
2019-04-27T02:25:09.355Z,99157.82
2019-04-27T02:31:13.683Z,99151.39
2019-04-27T02:37:20.090Z,99145.39
2019-04-27T02:43:29.609Z,99130.98
2019-04-27T02:49:34.413Z,99130.44
2019-04-27T02:55:39.818Z,99136.41
2019-04-27T03:01:53.541Z,99129.11
2019-04-27T03:07:59.725Z,99130.45
2019-04-27T03:14:32.586Z,99134.34
2019-04-27T03:20:36.076Z,99135.93
2019-04-27T03:26:42.440Z,99140.39
2019-04-27T03:32:54.687Z,99134.52
2019-04-27T03:38:53.474Z,99140.36
2019-04-27T03:45:00.356Z,99138.29
2019-04-27T03:51:10.082Z,99134.64
2019-04-27T03:57:22.540Z,99140.68
2019-04-27T04:03:29.567Z,99139.14
2019-04-27T04:09:40.910Z,99134.00
2019-04-27T04:15:52.184Z,99131.20
2019-04-27T04:21:57.083Z,99131.64
2019-04-27T04:28:01.632Z,99124.98
2019-04-27T04:34:06.605Z,99121.23
2019-04-27T04:40:11.486Z,99121.03
2019-04-27T04:46:16.069Z,99123.19
2019-04-27T04:52:20.691Z,99125.39
2019-04-27T04:58:25.247Z,99116.21
2019-04-27T05:04:29.821Z,99122.83
2019-04-27T05:10:34.434Z,99132.16
2019-04-27T05:16:39.163Z,99138.27
2019-04-27T05:22:43.918Z,99132.95
2019-04-27T05:28:49.205Z,99131.54
2019-04-27T05:34:53.807Z,99139.42
2019-04-27T05:40:58.729Z,99134.50
2019-04-27T05:47:05.351Z,99123.94
2019-04-27T05:53:11.242Z,99123.89
2019-04-27T05:59:15.884Z,99121.01
2019-04-27T06:05:22.814Z,99112.59
2019-04-27T06:11:28.434Z,99118.34
2019-04-27T06:17:33.245Z,99113.99
2019-04-27T06:23:39.051Z,99112.62
2019-04-27T06:29:43.723Z,99114.66
2019-04-27T06:35:49.557Z,99113.44
2019-04-27T06:41:54.223Z,99105.77
2019-04-27T06:47:59.531Z,99099.00
2019-04-27T06:54:04.390Z,99097.56
2019-04-27T07:00:09.786Z,99093.52
2019-04-27T07:06:14.410Z,99090.27
2019-04-27T07:12:19.238Z,99084.77
2019-04-27T07:18:23.767Z,99079.76
2019-04-27T07:24:29.224Z,99070.51
2019-04-27T07:30:33.991Z,99066.84
2019-04-27T07:36:39.303Z,99066.42
2019-04-27T07:42:45.928Z,99072.02
2019-04-27T07:48:50.963Z,99055.23
2019-04-27T07:54:55.872Z,99053.57
2019-04-27T08:01:00.435Z,99049.88
2019-04-27T08:07:05.081Z,99040.28
2019-04-27T08:13:09.689Z,99038.06
2019-04-27T08:19:14.331Z,99025.58
2019-04-27T08:25:19.061Z,99028.17
2019-04-27T08:31:25.376Z,99025.95
2019-04-27T08:37:38.763Z,99031.06
2019-04-27T08:43:43.329Z,99037.52
2019-04-27T08:49:49.180Z,99027.41
2019-04-27T08:55:53.929Z,99015.72
2019-04-27T09:01:58.794Z,99010.69
2019-04-27T09:08:18.947Z,99007.59
2019-04-27T09:14:37.133Z,99003.55
2019-04-27T09:20:49.247Z,99000.25
2019-04-27T09:26:53.791Z,98999.55
2019-04-27T09:32:58.671Z,98989.98
2019-04-27T09:39:03.288Z,98980.56
2019-04-27T09:45:09.053Z,98974.17
2019-04-27T09:51:13.625Z,98962.61
2019-04-27T09:57:18.184Z,98953.61
2019-04-27T10:03:22.816Z,98952.70
2019-04-27T10:09:29.636Z,98951.25
2019-04-27T10:15:35.546Z,98935.45
2019-04-27T10:21:39.993Z,98938.66
2019-04-27T10:27:46.183Z,98926.29
2019-04-27T10:33:50.742Z,98918.42
2019-04-27T10:39:56.061Z,98913.45
2019-04-27T10:46:00.837Z,98906.61
2019-04-27T10:52:06.068Z,98906.30
2019-04-27T10:58:10.632Z,98892.12
2019-04-27T11:04:19.573Z,98886.23
2019-04-27T11:10:25.897Z,98873.22
2019-04-27T11:16:30.669Z,98870.23
2019-04-27T11:22:36.304Z,98866.84
2019-04-27T11:28:42.731Z,98871.56
2019-04-27T11:35:05.820Z,98884.34
2019-04-27T11:41:10.517Z,98888.70
2019-04-27T11:47:16.230Z,98881.50
2019-04-27T11:53:23.194Z,98883.70
2019-04-27T11:59:27.279Z,98873.98
2019-04-27T12:05:32.109Z,98877.50
2019-04-27T12:11:36.730Z,98870.01
2019-04-27T12:17:41.346Z,98882.00
2019-04-27T12:23:47.247Z,98890.08
2019-04-27T12:30:06.245Z,98888.14
2019-04-27T12:36:11.073Z,98879.16
2019-04-27T12:42:16.070Z,98878.68
2019-04-27T12:48:20.869Z,98878.63
2019-04-27T12:54:27.073Z,98871.92
2019-04-27T13:00:39.706Z,98881.83
2019-04-27T13:06:44.342Z,98874.23
2019-04-27T13:12:48.954Z,98864.27
2019-04-27T13:18:53.592Z,98860.75
2019-04-27T13:24:58.512Z,98860.09
2019-04-27T13:31:03.085Z,98860.55
2019-04-27T13:37:09.262Z,98867.86
2019-04-27T13:43:21.447Z,98858.75
2019-04-27T13:49:43.944Z,98858.03
2019-04-27T13:55:48.627Z,98856.11
2019-04-27T14:01:53.228Z,98846.81
2019-04-27T14:07:59.149Z,98844.58
2019-04-27T14:14:03.905Z,98857.98
2019-04-27T14:20:09.713Z,98857.22
2019-04-27T14:26:14.367Z,98855.33
2019-04-27T14:32:19.000Z,98849.33
2019-04-27T14:38:23.565Z,98844.76
2019-04-27T14:44:29.276Z,98850.34
2019-04-27T14:50:33.828Z,98849.33
2019-04-27T14:56:38.840Z,98851.74
2019-04-27T15:02:43.458Z,98850.55
2019-04-27T15:08:49.225Z,98849.28
2019-04-27T15:14:57.276Z,98846.75
2019-04-27T15:21:02.586Z,98846.67
2019-04-27T15:27:08.259Z,98849.29
2019-04-27T15:33:30.535Z,98844.56
2019-04-27T15:39:52.772Z,98842.52
2019-04-27T15:45:58.612Z,98839.91
2019-04-27T15:52:04.657Z,98844.91
2019-04-27T15:58:09.787Z,98870.66
2019-04-27T16:04:14.559Z,98919.37
2019-04-27T16:10:20.108Z,98929.66
2019-04-27T16:16:29.215Z,98944.73
2019-04-27T16:22:31.601Z,98954.69
2019-04-27T16:28:36.148Z,98957.99
2019-04-27T16:34:41.319Z,98957.48
2019-04-27T16:40:46.007Z,98957.37
2019-04-27T16:46:50.642Z,98959.06
2019-04-27T16:59:20.724Z,98958.59
2019-04-27T17:05:08.503Z,98963.97
2019-04-27T17:11:13.866Z,98976.69
2019-04-27T17:12:40.067Z,98959.55
2019-04-27T17:17:20.135Z,98989.52
2019-04-27T17:23:31.199Z,98987.19
2019-04-27T17:29:35.791Z,98973.16
2019-04-27T17:35:42.675Z,98962.10
2019-04-27T17:41:50.576Z,98981.93
2019-04-27T17:47:53.001Z,99005.64
2019-04-27T17:53:58.599Z,99012.86
2019-04-27T18:00:05.324Z,99020.86
2019-04-27T18:06:09.939Z,99026.44
2019-04-27T18:12:15.798Z,99033.91
2019-04-27T18:18:22.806Z,99042.70
2019-04-27T18:24:30.282Z,99044.31
2019-04-27T18:30:52.927Z,99031.38
2019-04-27T18:36:57.470Z,99038.77
2019-04-27T18:43:05.942Z,99043.00
2019-04-27T18:49:22.618Z,99047.42
2019-04-27T18:55:28.977Z,99064.70
2019-04-27T19:01:33.626Z,99089.02
2019-04-27T19:07:38.353Z,99076.51
2019-04-27T19:13:42.863Z,99078.42
2019-04-27T19:19:47.440Z,99095.72
2019-04-27T19:26:08.643Z,99100.55
2019-04-27T19:32:13.188Z,99105.44
2019-04-27T19:38:18.572Z,99108.31
2019-04-27T19:44:23.456Z,99106.91
2019-04-27T19:50:28.627Z,99097.56
2019-04-27T19:56:33.233Z,99103.90
2019-04-27T20:02:38.250Z,99110.90
2019-04-27T20:08:48.957Z,99115.87
2019-04-27T20:14:56.635Z,99113.46
2019-04-27T20:21:01.184Z,99113.45
2019-04-27T20:27:05.728Z,99105.59
2019-04-27T20:33:11.033Z,99109.21
2019-04-27T20:39:15.781Z,99113.12
2019-04-27T20:45:20.388Z,99124.20
2019-04-27T20:51:31.020Z,99130.58
2019-04-27T20:57:35.781Z,99136.99
2019-04-27T21:03:41.935Z,99146.63
2019-04-27T21:09:46.470Z,99147.52
2019-04-27T21:15:51.064Z,99139.19
2019-04-27T21:21:55.640Z,99155.81
2019-04-27T21:28:14.923Z,99154.07
2019-04-27T21:34:06.458Z,99147.86
2019-04-27T21:40:13.658Z,99161.79
2019-04-27T21:46:18.218Z,99154.96
2019-04-27T21:52:27.350Z,99166.13
2019-04-27T21:58:33.380Z,99168.84
2019-04-27T22:04:38.694Z,99167.52
2019-04-27T22:10:43.235Z,99172.58
2019-04-27T22:16:47.771Z,99175.89
2019-04-27T22:23:09.230Z,99180.20
2019-04-27T22:29:13.780Z,99187.58
2019-04-27T22:35:18.471Z,99194.11
2019-04-27T22:41:24.723Z,99188.03
2019-04-27T22:47:29.353Z,99201.59
2019-04-27T22:53:33.969Z,99201.59
2019-04-27T22:59:42.941Z,99206.25
2019-04-27T23:05:47.614Z,99204.83
2019-04-27T23:11:52.235Z,99204.64
2019-04-27T23:17:57.481Z,99211.53
2019-04-27T23:24:02.048Z,99210.39
2019-04-27T23:30:08.564Z,99210.50
2019-04-27T23:36:13.117Z,99230.70
2019-04-27T23:42:17.746Z,99221.11
2019-04-27T23:48:22.990Z,99228.28
2019-04-27T23:54:28.564Z,99224.50
